CheckWX is a tool to help pilots better visualize weather data.  It is not intended as a substitute for an official pre-flight weather briefing.

03:26:40 UTC

KLSV METAR
Nellis AFB Airport
Las Vegas, Nevada, USA
Current

29 mins ago

KLSV 230258Z AUTO 14011KT 10SM BKN190 38/13 A2986 RMK AO2 SLP083 T03840129 53001
Observed
Jul-23 @ 02:58 UTC
Wind
  • 140° at 11 KTS
Visibility
10 SM
Flight Rules
VFR
Cloud Levels
  • Broken at 19,000' AGL
Temperature
38°C / 100°F
Dewpoint
13°C / 55°F
Humidity
22%
Altimeter
29.86" Hg
Pressure
1011.22 hPa
Previous

1 hour ago

KLSV 230158Z AUTO 14014KT 10SM FEW170 40/10 A2986 RMK AO2 SLP082 T03990102
Observed
Jul-23 @ 01:58 UTC
Wind
  • 140° at 14 KTS
Visibility
10 SM
Flight Rules
VFR
Cloud Levels
  • Few at 17,000' AGL
Temperature
40°C / 104°F
Dewpoint
10°C / 50°F
Humidity
16%
Altimeter
29.86" Hg
Pressure
1011.22 hPa
Previous

2 hours ago

KLSV 230107Z AUTO 13011KT 10SM CLR 41/09 A2986 RMK AO2 WSHFT 04 SLP083
Observed
Jul-23 @ 01:07 UTC
Wind
  • 130° at 11 KTS
Visibility
10 SM
Flight Rules
VFR
Cloud Levels
  • Clear skies
Temperature
41°C / 106°F
Dewpoint
C / 48°F
Humidity
14%
Altimeter
29.86" Hg
Pressure
1011.22 hPa